Madison, MN

12:02 AM CDT on April 28, 2017 (GMT -0500)
Madison-Lac Qui Parle County

Weather History for KDXX - September, 2014

Change the Weather History Date:

Wednesday, September 3, 2014

  Actual Average (KAQP) Record (KAQP)
Temperature  
Mean Temperature 71 °F -  
Max Temperature 82 °F 77 °F 91 °F (2007)
Min Temperature 60 °F 53 °F 37 °F (2008)
Cooling Degree Days 6    
Growing Degree Days 21 (Base 50)    
Moisture  
Dew Point 66 °F    
Average Humidity 82    
Maximum Humidity 94    
Minimum Humidity 73    
Precipitation  
Precipitation 0.30 in - - ()
Sea Level Pressure  
Sea Level Pressure 29.71 in    
Wind  
Wind Speed 9 mph (SSE)    
Max Wind Speed 21 mph    
Max Gust Speed 37 mph    
Visibility 10 miles    
Events Rain , Thunderstorm    
Averages and records for this station are not official NWS values.
T = Trace of Precipitation, MM = Missing Value Source: NWS Daily Summary

Daily Weather History Graph

Daily Weather History Graph

Search for Another Location

Airport or City:

Trip Planner

Search our weather history database for the weather conditions in past years. The results will help you decide how hot, cold, wet, or windy it might be!

Date:

Astronomy

Sep. 03, 2014 Rise Set
Actual Time 6:49 AM CDT 7:58 PM CDT
Civil Twilight 6:18 AM CDT 8:28 PM CDT
Nautical Twilight 5:42 AM CDT 9:04 PM CDT
Astronomical Twilight 5:04 AM CDT 9:42 PM CDT
Moon 3:49 PM CDT (9/3) 12:35 AM CDT (9/3)
Length of Visible Light 14h 09m
Length of Day
13h 08m
Waxing Gibbous, 64% of the Moon is Illuminated
Sep 3
Waxing Gibbous
Sep 8
Full
Sep 15
Last Quarter
Sep 24
New
Oct 1
First Quarter

Hourly Weather History & Observations

Time (CDT) Temp. Heat Index Dew Point Humidity Pressure Visibility Wind Dir Wind Speed Gust Speed Precip Events Conditions
12:13 AM 60.8 °F - 57.2 °F 88% 29.82 in 10.0 mi South 6.9 mph - N/A   Clear
12:34 AM 60.8 °F - 57.2 °F 88% 29.82 in 10.0 mi South 8.1 mph - N/A   Clear
12:53 AM 60.8 °F - 57.2 °F 88% 29.82 in 10.0 mi South 6.9 mph - N/A   Clear
1:14 AM 60.8 °F - 57.2 °F 88% 29.82 in 10.0 mi South 6.9 mph - N/A   Clear
1:34 AM 62.6 °F - 57.2 °F 82% 29.81 in 10.0 mi South 6.9 mph - N/A   Clear
1:53 AM 64.4 °F - 59.0 °F 83% 29.81 in 10.0 mi SSW 8.1 mph - N/A   Clear
2:14 AM 64.4 °F - 59.0 °F 83% 29.80 in 10.0 mi South 6.9 mph - N/A   Clear
2:34 AM 64.4 °F - 59.0 °F 83% 29.79 in 10.0 mi SSW 6.9 mph - N/A   Clear
2:52 AM 64.4 °F - 59.0 °F 83% 29.80 in 10.0 mi SSW 9.2 mph - N/A   Clear
3:14 AM 64.4 °F - 59.0 °F 83% 29.80 in 10.0 mi SSW 9.2 mph - N/A   Clear
3:33 AM 66.2 °F - 59.0 °F 78% 29.80 in 10.0 mi South 8.1 mph - N/A Thunderstorm Scattered Clouds
3:53 AM 68.0 °F - 60.8 °F 78% 29.78 in 10.0 mi SSW 9.2 mph - N/A Thunderstorm Mostly Cloudy
4:14 AM 68.0 °F - 60.8 °F 78% 29.80 in 10.0 mi SSW 11.5 mph 18.4 mph N/A Thunderstorm Thunderstorm
4:34 AM 66.2 °F - 62.6 °F 88% 29.81 in 10.0 mi SW 20.7 mph 36.8 mph 0.06 in Rain , Thunderstorm Heavy Thunderstorms and Rain
4:53 AM 66.2 °F - 62.6 °F 88% 29.81 in 10.0 mi South 9.2 mph - 0.23 in Rain , Thunderstorm Heavy Thunderstorms and Rain
5:14 AM 66.2 °F - 62.6 °F 88% 29.81 in 7.0 mi SSE 15.0 mph - 0.04 in Rain Rain
5:34 AM 66.2 °F - 60.8 °F 83% 29.78 in 10.0 mi SE 13.8 mph - 0.06 in   Overcast
5:53 AM 68.0 °F - 60.8 °F 78% 29.78 in 10.0 mi ESE 16.1 mph 23.0 mph 0.06 in   Overcast
6:14 AM 66.2 °F - 60.8 °F 83% 29.78 in 10.0 mi ESE 10.4 mph 20.7 mph N/A Thunderstorm Overcast
6:34 AM 66.2 °F - 60.8 °F 83% 29.79 in 10.0 mi ESE 13.8 mph - N/A Thunderstorm Overcast
6:53 AM 66.2 °F - 59.0 °F 78% 29.79 in 10.0 mi East 10.4 mph - N/A   Overcast
7:14 AM 64.4 °F - 60.8 °F 88% 29.80 in 10.0 mi East 5.8 mph - N/A Rain Light Rain
7:33 AM 64.4 °F - 60.8 °F 88% 29.80 in 10.0 mi East 12.7 mph - N/A   Overcast
7:54 AM 64.4 °F - 60.8 °F 88% 29.78 in 10.0 mi East 12.7 mph - N/A   Overcast
8:14 AM 64.4 °F - 60.8 °F 88% 29.78 in 10.0 mi East 10.4 mph - N/A   Mostly Cloudy
8:33 AM 64.4 °F - 60.8 °F 88% 29.76 in 10.0 mi ESE 11.5 mph 17.3 mph N/A   Scattered Clouds
8:54 AM 66.2 °F - 60.8 °F 83% 29.75 in 10.0 mi ESE 12.7 mph - N/A   Clear
9:13 AM 68.0 °F - 60.8 °F 78% 29.75 in 10.0 mi ESE 13.8 mph - N/A   Clear
9:34 AM 68.0 °F - 60.8 °F 78% 29.75 in 10.0 mi ESE 13.8 mph - N/A   Clear
9:54 AM 69.8 °F - 62.6 °F 78% 29.75 in 10.0 mi SE 13.8 mph 20.7 mph N/A   Clear
10:13 AM 69.8 °F - 62.6 °F 78% 29.74 in 10.0 mi SE 15.0 mph 19.6 mph 0.01 in   Clear
10:33 AM 69.8 °F - 62.6 °F 78% 29.75 in 10.0 mi SE 17.3 mph - 0.01 in   Clear
10:54 AM 69.8 °F - 62.6 °F 78% 29.72 in 10.0 mi SE 16.1 mph 21.9 mph 0.01 in   Clear
11:13 AM 69.8 °F - 64.4 °F 83% 29.72 in 10.0 mi SE 15.0 mph 23.0 mph N/A Thunderstorm Clear
11:33 AM 71.6 °F - 64.4 °F 78% 29.70 in 10.0 mi SE 13.8 mph 18.4 mph N/A   Clear
11:54 AM 75.2 °F - 66.2 °F 73% 29.68 in 10.0 mi SE 12.7 mph - N/A   Clear
12:13 PM 75.2 °F - 68.0 °F 78% 29.67 in 10.0 mi SSE 9.2 mph 17.3 mph N/A   Clear
12:33 PM 75.2 °F - 69.8 °F 83% 29.68 in 10.0 mi SSE 8.1 mph - N/A Thunderstorm Clear
12:54 PM 77.0 °F - 69.8 °F 78% 29.68 in 10.0 mi South 8.1 mph - N/A   Clear
1:13 PM 75.2 °F - 69.8 °F 83% 29.67 in 10.0 mi South 5.8 mph - N/A   Clear
1:34 PM 78.8 °F - 69.8 °F 74% 29.66 in 10.0 mi South 8.1 mph - N/A   Clear
1:53 PM 77.0 °F - 69.8 °F 78% 29.65 in 10.0 mi South 5.8 mph - N/A   Clear
2:14 PM 78.8 °F - 71.6 °F 78% 29.66 in 10.0 mi SSW 8.1 mph - N/A   Clear
2:34 PM 78.8 °F - 69.8 °F 74% 29.66 in 10.0 mi SW 9.2 mph - N/A   Clear
2:53 PM 78.8 °F - 69.8 °F 74% 29.65 in 10.0 mi SW 10.4 mph - N/A   Scattered Clouds
3:13 PM 78.8 °F - 71.6 °F 78% 29.65 in 10.0 mi SSW 10.4 mph - N/A   Scattered Clouds
3:34 PM 78.8 °F - 71.6 °F 78% 29.64 in 10.0 mi SSW 10.4 mph 17.3 mph N/A   Clear
3:53 PM 80.6 °F 84.6 °F 71.6 °F 74% 29.63 in 10.0 mi SSW 16.1 mph 20.7 mph N/A   Clear
4:14 PM 80.6 °F 84.6 °F 71.6 °F 74% 29.63 in 10.0 mi SSW 12.7 mph 19.6 mph N/A   Clear
4:33 PM 80.6 °F 84.6 °F 71.6 °F 74% 29.63 in 10.0 mi SSW 10.4 mph 17.3 mph N/A   Scattered Clouds
4:54 PM 80.6 °F 84.6 °F 71.6 °F 74% 29.63 in 10.0 mi South 9.2 mph - N/A   Clear
5:14 PM 80.6 °F 84.6 °F 71.6 °F 74% 29.63 in 10.0 mi SSW 8.1 mph - N/A   Clear
5:33 PM 80.6 °F 84.6 °F 71.6 °F 74% 29.63 in 10.0 mi SSW 6.9 mph - N/A   Clear
5:54 PM 80.6 °F 84.6 °F 71.6 °F 74% 29.63 in 10.0 mi South 5.8 mph - N/A   Clear
6:14 PM 80.6 °F 84.6 °F 71.6 °F 74% 29.63 in 10.0 mi Calm Calm - N/A   Clear
6:33 PM 82.4 °F 88.2 °F 73.4 °F 74% 29.63 in 10.0 mi South 4.6 mph - N/A   Clear
6:54 PM 80.6 °F 85.4 °F 73.4 °F 79% 29.63 in 10.0 mi SSW 4.6 mph - N/A   Clear
7:14 PM 78.8 °F - 73.4 °F 83% 29.63 in 10.0 mi SSE 3.5 mph - N/A   Clear
7:33 PM 78.8 °F - 71.6 °F 78% 29.64 in 10.0 mi Calm Calm - N/A   Clear
7:54 PM 77.0 °F - 71.6 °F 83% 29.64 in 10.0 mi South 5.8 mph - N/A   Clear
8:14 PM 77.0 °F - 71.6 °F 83% 29.65 in 10.0 mi SSE 5.8 mph - N/A   Clear
8:33 PM 77.0 °F - 71.6 °F 83% 29.65 in 10.0 mi SE 3.5 mph - N/A   Clear
8:54 PM 77.0 °F - 71.6 °F 83% 29.66 in 10.0 mi SE 4.6 mph - N/A   Clear
9:14 PM 75.2 °F - 71.6 °F 89% 29.66 in 10.0 mi ESE 4.6 mph - N/A   Clear
9:33 PM 75.2 °F - 71.6 °F 89% 29.66 in 10.0 mi ESE 4.6 mph - N/A   Clear
9:54 PM 73.4 °F - 71.6 °F 94% 29.66 in 7.0 mi East 5.8 mph - N/A   Clear
10:13 PM 73.4 °F - 71.6 °F 94% 29.66 in 7.0 mi SE 5.8 mph - N/A   Clear
10:53 PM 73.4 °F - 71.6 °F 94% 29.65 in 7.0 mi SE 4.6 mph - N/A   Clear
11:14 PM 73.4 °F - 71.6 °F 94% 29.65 in 10.0 mi SE 6.9 mph - N/A   Clear
11:34 PM 73.4 °F - 71.6 °F 94% 29.65 in 7.0 mi SE 8.1 mph - N/A   Clear
11:53 PM 73.4 °F - 71.6 °F 94% 29.64 in 7.0 mi SE 8.1 mph - N/A   Clear